Terminal Aerodrome Forecast
Issued by NWS Billings, MT

Home | Current Version | Previous Version | Text Only | Print | Product List | Glossary On
Versions: 1 2 3 4 5 6 7 8 9 10 11 12 13 14 15 16 17 18 19 20 21 22 23 24 25 26 27 28 29 30 31
511
FTUS45 KBYZ 131128
TAFMLS
TAF
KMLS 131128Z 1312/1412 15011KT P6SM OVC060
     FM131400 20008KT P6SM VCSH SCT025 BKN060
     FM131800 30015G30KT P6SM -RA BKN030 OVC050
     FM132000 29018G25KT P6SM SCT020 BKN050
     FM140100 26011KT P6SM SCT020 BKN050=

USA.gov is the U.S. government's official web portal to all federal, state and local government web resources and services.